Time;durP1;ratioP1;P1;durP2;ratioP2;P2;SDS_P1;SDS_P2;PMS_P1;PMS_P2;Temp;Humidity;BMP_temperature;BMP_pressure;BME280_temperature;BME280_humidity;BME280_pressure;Samples;Min_cycle;Max_cycle;Signal;HPM_P1;HPM_P2
2024/01/15 00:01:59;;;;;;;17.70;12.33;;;5.10;99.90;;;;;;4887548;29;20255;-68
2024/01/15 00:04:25;;;;;;;17.03;12.57;;;5.00;99.90;;;;;;4854434;29;20215;-68
2024/01/15 00:06:51;;;;;;;21.20;15.10;;;5.00;99.90;;;;;;4886774;29;20196;-68
2024/01/15 00:09:17;;;;;;;19.90;13.70;;;5.00;99.90;;;;;;4897266;29;20183;-68
2024/01/15 00:11:43;;;;;;;21.40;14.47;;;5.10;99.90;;;;;;4864481;29;20192;-62
2024/01/15 00:14:09;;;;;;;21.23;14.33;;;5.00;99.90;;;;;;4871228;29;20700;-68
2024/01/15 00:16:34;;;;;;;19.00;13.15;;;5.00;99.90;;;;;;4884375;29;20458;-69
2024/01/15 00:19:00;;;;;;;21.60;14.60;;;5.00;99.90;;;;;;4886403;29;20258;-72
2024/01/15 00:21:27;;;;;;;20.40;14.23;;;5.10;99.90;;;;;;4870417;29;20442;-70
2024/01/15 00:23:53;;;;;;;21.00;15.10;;;5.20;99.90;;;;;;4894014;29;20222;-70
2024/01/15 00:26:19;;;;;;;20.30;14.03;;;5.20;99.90;;;;;;4896055;29;20192;-69
2024/01/15 00:28:45;;;;;;;18.97;13.40;;;5.20;99.90;;;;;;4881140;29;20433;-63
2024/01/15 00:31:10;;;;;;;22.33;14.47;;;5.10;99.90;;;;;;4881147;29;20225;-69
2024/01/15 00:33:36;;;;;;;21.00;15.60;;;5.20;99.90;;;;;;4884253;29;20184;-64
2024/01/15 00:36:03;;;;;;;23.40;16.33;;;5.10;99.90;;;;;;4888140;29;20263;-62
2024/01/15 00:38:28;;;;;;;22.20;15.10;;;5.20;99.90;;;;;;4895102;29;20265;-70
2024/01/15 00:40:54;;;;;;;21.57;15.67;;;5.30;99.90;;;;;;4888786;29;20186;-66
2024/01/15 00:43:21;;;;;;;22.95;14.82;;;5.40;99.90;;;;;;4888439;29;20593;-69
2024/01/15 00:45:46;;;;;;;21.08;15.07;;;5.50;99.90;;;;;;4882243;29;20248;-66
2024/01/15 00:48:12;;;;;;;22.20;15.30;;;5.40;99.90;;;;;;4896181;29;20311;-72
2024/01/15 00:50:38;;;;;;;20.07;15.10;;;5.40;99.90;;;;;;4894627;29;20181;-73
2024/01/15 00:53:04;;;;;;;20.43;14.50;;;5.40;99.90;;;;;;4894869;29;20207;-73
2024/01/15 00:55:29;;;;;;;20.97;15.00;;;5.40;99.90;;;;;;4883580;29;20211;-71
2024/01/15 00:57:55;;;;;;;20.97;14.77;;;5.40;99.90;;;;;;4889894;29;20235;-73
2024/01/15 01:00:21;;;;;;;23.53;16.10;;;5.30;99.90;;;;;;4889624;29;20908;-72
2024/01/15 01:02:47;;;;;;;21.63;16.07;;;5.20;99.90;;;;;;4894252;29;20187;-64
2024/01/15 01:05:13;;;;;;;21.17;15.33;;;5.20;99.90;;;;;;4885802;29;20240;-72
2024/01/15 01:07:38;;;;;;;21.20;15.40;;;5.30;99.90;;;;;;4895456;29;20424;-72
2024/01/15 01:10:05;;;;;;;21.60;15.60;;;5.20;99.90;;;;;;4893984;29;20800;-73
2024/01/15 01:12:30;;;;;;;20.52;15.18;;;5.20;99.90;;;;;;4888265;29;20428;-73
2024/01/15 01:14:56;;;;;;;21.80;15.83;;;5.20;99.90;;;;;;4883856;29;20221;-72
2024/01/15 01:17:22;;;;;;;19.60;14.80;;;5.10;99.90;;;;;;4887792;29;20191;-73
2024/01/15 01:19:49;;;;;;;20.33;14.27;;;5.10;99.90;;;;;;4867881;29;20272;-65
2024/01/15 01:22:15;;;;;;;19.65;14.75;;;5.20;99.90;;;;;;4891188;29;20202;-73
2024/01/15 01:24:40;;;;;;;19.63;14.80;;;5.20;99.90;;;;;;4878929;29;20219;-74
2024/01/15 01:27:07;;;;;;;23.07;15.50;;;5.20;99.90;;;;;;4863249;29;20516;-74
2024/01/15 01:29:32;;;;;;;22.13;15.40;;;5.20;99.90;;;;;;4879988;29;20743;-73
2024/01/15 01:31:58;;;;;;;26.67;15.20;;;5.30;99.90;;;;;;4892054;29;20171;-73
2024/01/15 01:34:24;;;;;;;25.07;14.83;;;5.20;99.90;;;;;;4863036;29;20223;-73
2024/01/15 01:36:50;;;;;;;20.97;14.10;;;5.20;99.90;;;;;;4894355;29;20402;-73
2024/01/15 01:39:16;;;;;;;21.40;14.63;;;5.20;99.90;;;;;;4886496;29;20192;-73
2024/01/15 01:41:42;;;;;;;22.95;15.70;;;5.20;99.90;;;;;;4891640;29;20406;-73
2024/01/15 01:44:08;;;;;;;18.90;14.33;;;5.20;99.90;;;;;;4889379;29;20229;-73
2024/01/15 01:46:39;;;;;;;20.90;13.60;;;5.20;99.90;;;;;;4893009;29;20188;-74
2024/01/15 01:49:06;;;;;;;21.38;14.73;;;5.20;99.90;;;;;;4896353;29;20383;-73
2024/01/15 01:51:34;;;;;;;23.60;14.77;;;5.20;99.90;;;;;;4887948;29;20184;-73
2024/01/15 01:54:00;;;;;;;22.50;16.00;;;5.30;99.90;;;;;;4889895;29;20216;-72
2024/01/15 01:56:26;;;;;;;20.55;14.40;;;5.30;99.90;;;;;;4892613;29;20231;-72
2024/01/15 01:58:53;;;;;;;21.92;15.32;;;5.20;99.90;;;;;;4894081;29;20558;-72
2024/01/15 02:01:19;;;;;;;20.20;15.23;;;5.20;99.90;;;;;;4885025;29;20188;-71
2024/01/15 02:03:45;;;;;;;21.58;15.55;;;5.20;99.90;;;;;;4893670;29;20456;-73
2024/01/15 02:06:11;;;;;;;23.47;16.00;;;5.30;99.90;;;;;;4892183;29;20262;-73
2024/01/15 02:08:37;;;;;;;21.23;15.38;;;5.30;99.90;;;;;;4878295;29;20404;-73
2024/01/15 02:11:03;;;;;;;25.43;15.57;;;5.30;99.90;;;;;;4851987;29;20705;-73
2024/01/15 02:13:29;;;;;;;20.33;14.65;;;5.30;99.90;;;;;;4877938;29;20791;-72
2024/01/15 02:15:55;;;;;;;21.80;15.07;;;5.30;99.90;;;;;;4884980;29;20191;-73
2024/01/15 02:18:21;;;;;;;26.10;16.53;;;5.30;99.90;;;;;;4878350;29;20180;-72
2024/01/15 02:20:46;;;;;;;23.83;15.10;;;5.30;99.90;;;;;;4882493;29;20179;-72
2024/01/15 02:23:16;;;;;;;21.23;13.90;;;5.40;99.90;;;;;;4870435;29;20220;-72
2024/01/15 02:25:44;;;;;;;22.55;14.55;;;5.20;99.90;;;;;;4878215;29;20193;-73
2024/01/15 02:28:12;;;;;;;21.90;14.27;;;5.40;99.90;;;;;;4888013;29;20180;-73
2024/01/15 02:30:39;;;;;;;24.52;15.88;;;5.30;99.90;;;;;;4870797;29;20188;-73
2024/01/15 02:33:06;;;;;;;26.27;14.48;;;5.30;99.90;;;;;;4894325;29;20270;-73
2024/01/15 02:35:32;;;;;;;18.67;14.10;;;5.30;99.90;;;;;;4847092;29;20610;-73
2024/01/15 02:37:59;;;;;;;19.60;13.48;;;5.30;99.90;;;;;;4880891;29;20179;-73
2024/01/15 02:40:24;;;;;;;20.40;14.57;;;5.40;99.90;;;;;;4881846;29;20282;-73
2024/01/15 02:42:50;;;;;;;19.97;13.50;;;5.20;99.90;;;;;;4877675;29;20264;-64
2024/01/15 02:45:17;;;;;;;21.30;14.17;;;5.30;99.90;;;;;;4878765;29;20424;-73
2024/01/15 02:47:43;;;;;;;22.35;13.82;;;5.40;99.90;;;;;;4895011;29;20402;-73
2024/01/15 02:50:08;;;;;;;20.03;12.17;;;5.30;99.90;;;;;;4895187;29;20188;-74
2024/01/15 02:52:34;;;;;;;21.33;15.07;;;5.40;99.90;;;;;;4871727;29;20239;-74
2024/01/15 02:55:00;;;;;;;18.43;12.47;;;5.30;99.90;;;;;;4888267;29;20478;-73
2024/01/15 02:57:26;;;;;;;20.07;14.77;;;5.30;99.90;;;;;;4889946;29;20239;-73
2024/01/15 02:59:52;;;;;;;19.07;12.93;;;5.30;99.90;;;;;;4898401;29;20432;-64
2024/01/15 03:02:17;;;;;;;25.27;13.77;;;5.40;99.90;;;;;;4896813;29;20624;-74
2024/01/15 03:04:46;;;;;;;19.17;12.80;;;5.40;99.90;;;;;;4883065;29;20204;-68
2024/01/15 03:07:12;;;;;;;18.85;13.35;;;5.40;99.90;;;;;;4880154;29;20169;-73
2024/01/15 03:09:38;;;;;;;18.25;13.70;;;5.50;99.90;;;;;;4881208;29;20184;-74
2024/01/15 03:12:04;;;;;;;19.73;13.10;;;5.40;99.90;;;;;;4881364;29;20541;-72
2024/01/15 03:14:30;;;;;;;19.10;13.07;;;5.40;99.90;;;;;;4881211;29;20194;-73
2024/01/15 03:16:56;;;;;;;20.17;13.30;;;5.30;99.90;;;;;;4890698;29;20695;-72
2024/01/15 03:19:22;;;;;;;20.50;12.97;;;5.30;99.90;;;;;;4897849;29;20827;-73
2024/01/15 03:21:47;;;;;;;22.77;13.27;;;5.40;99.90;;;;;;4888388;29;20445;-73
2024/01/15 03:24:13;;;;;;;17.67;13.73;;;5.40;99.90;;;;;;4896741;29;20486;-73
2024/01/15 03:26:39;;;;;;;17.57;13.13;;;5.50;99.90;;;;;;4897916;29;20701;-73
2024/01/15 03:29:05;;;;;;;18.60;13.48;;;5.40;99.90;;;;;;4897192;29;20258;-73
2024/01/15 03:31:31;;;;;;;22.25;13.95;;;5.40;99.90;;;;;;4878128;29;20183;-73
2024/01/15 03:33:57;;;;;;;22.17;13.50;;;5.40;99.90;;;;;;4873219;29;20649;-72
2024/01/15 03:36:23;;;;;;;21.20;13.17;;;5.40;99.90;;;;;;4881227;29;20233;-73
2024/01/15 03:38:48;;;;;;;16.07;11.83;;;5.30;99.90;;;;;;4894559;29;20582;-73
2024/01/15 03:41:14;;;;;;;20.03;13.03;;;5.40;99.90;;;;;;4887356;29;20205;-73
2024/01/15 03:43:40;;;;;;;17.40;11.90;;;5.40;99.90;;;;;;4883177;29;20211;-74
2024/01/15 03:46:06;;;;;;;16.60;12.17;;;5.30;99.90;;;;;;4897818;29;20647;-73
2024/01/15 03:48:32;;;;;;;16.52;13.02;;;5.40;99.90;;;;;;4897229;29;20597;-73
2024/01/15 03:50:58;;;;;;;17.20;12.33;;;5.30;99.90;;;;;;4879950;29;20183;-72
2024/01/15 03:53:24;;;;;;;14.33;11.67;;;5.30;99.90;;;;;;4880680;29;20192;-73
2024/01/15 03:55:50;;;;;;;17.60;10.67;;;5.40;99.90;;;;;;4880398;29;20195;-72
2024/01/15 03:58:16;;;;;;;18.52;11.18;;;5.40;99.90;;;;;;4863508;29;20891;-73
2024/01/15 04:00:42;;;;;;;13.07;11.67;;;5.40;99.90;;;;;;4885551;29;20217;-73
2024/01/15 04:03:08;;;;;;;18.73;10.77;;;5.40;99.90;;;;;;4879253;29;20786;-68
2024/01/15 04:05:34;;;;;;;16.80;11.30;;;5.50;99.90;;;;;;4878734;29;20424;-73
2024/01/15 04:07:59;;;;;;;15.77;10.80;;;5.40;99.90;;;;;;4898070;29;20474;-72
2024/01/15 04:10:25;;;;;;;12.00;10.50;;;5.40;99.90;;;;;;4881177;29;20228;-73
2024/01/15 04:12:51;;;;;;;14.67;11.30;;;5.40;99.90;;;;;;4898716;29;20183;-73
2024/01/15 04:15:17;;;;;;;15.67;11.07;;;5.40;99.90;;;;;;4897690;29;20390;-73
2024/01/15 04:17:43;;;;;;;15.93;11.80;;;5.40;99.90;;;;;;4897229;29;20266;-74
2024/01/15 04:20:09;;;;;;;13.83;10.50;;;5.50;99.90;;;;;;4887494;29;20215;-73
2024/01/15 04:22:35;;;;;;;13.65;9.77;;;5.50;99.90;;;;;;4880622;29;20400;-73
2024/01/15 04:25:01;;;;;;;16.50;10.88;;;5.50;99.90;;;;;;4877745;29;20232;-73
2024/01/15 04:27:27;;;;;;;12.50;9.25;;;5.40;99.90;;;;;;4892224;29;20247;-73
2024/01/15 04:29:53;;;;;;;12.40;9.77;;;5.40;99.90;;;;;;4886945;29;20180;-73
2024/01/15 04:32:19;;;;;;;11.53;10.07;;;5.40;99.90;;;;;;4893624;29;20523;-73
2024/01/15 04:34:45;;;;;;;10.50;8.87;;;5.40;99.90;;;;;;4894366;29;20281;-73
2024/01/15 04:37:11;;;;;;;11.40;9.20;;;5.40;99.90;;;;;;4862042;29;20494;-72
2024/01/15 04:39:36;;;;;;;14.20;10.27;;;5.40;99.90;;;;;;4879647;29;20419;-74
2024/01/15 04:42:03;;;;;;;19.90;9.23;;;5.50;99.90;;;;;;4895411;29;20187;-73
2024/01/15 04:44:29;;;;;;;13.43;10.55;;;5.40;99.90;;;;;;4889256;29;20246;-73
2024/01/15 04:46:54;;;;;;;10.10;9.07;;;5.50;99.90;;;;;;4879438;29;20599;-74
2024/01/15 04:49:20;;;;;;;14.73;11.20;;;5.50;99.90;;;;;;4878688;29;20783;-73
2024/01/15 04:51:46;;;;;;;17.60;10.80;;;5.60;99.90;;;;;;4847398;29;20191;-73
2024/01/15 04:54:12;;;;;;;12.40;9.03;;;5.50;99.90;;;;;;4884329;29;20440;-73
2024/01/15 04:56:38;;;;;;;13.37;8.80;;;5.50;99.90;;;;;;4897547;29;20487;-73
2024/01/15 04:59:03;;;;;;;14.40;9.77;;;5.50;99.90;;;;;;4862560;29;20571;-73
2024/01/15 05:01:33;;;;;;;14.83;9.80;;;5.50;99.90;;;;;;4883863;29;20277;-73
2024/01/15 05:03:59;;;;;;;15.60;9.83;;;5.40;99.90;;;;;;4862120;29;20204;-65
2024/01/15 05:06:24;;;;;;;11.90;10.43;;;5.40;99.90;;;;;;4878719;29;20430;-73
2024/01/15 05:08:50;;;;;;;16.90;10.07;;;5.40;99.90;;;;;;4881833;29;20939;-73
2024/01/15 05:11:16;;;;;;;15.70;9.33;;;5.40;99.90;;;;;;4896998;29;20422;-75
2024/01/15 05:13:42;;;;;;;13.13;9.67;;;5.40;99.90;;;;;;4897723;29;20645;-73
2024/01/15 05:16:08;;;;;;;13.47;9.90;;;5.40;99.90;;;;;;4895328;29;20271;-73
2024/01/15 05:18:33;;;;;;;13.37;9.17;;;5.40;99.90;;;;;;4878878;29;20265;-71
2024/01/15 05:20:59;;;;;;;12.23;8.20;;;5.30;99.90;;;;;;4880405;29;20424;-65
2024/01/15 05:23:25;;;;;;;14.07;10.20;;;5.30;99.90;;;;;;4878239;29;20247;-73
2024/01/15 05:25:50;;;;;;;13.90;9.50;;;5.30;99.90;;;;;;4878583;29;20592;-73
2024/01/15 05:28:16;;;;;;;14.10;11.20;;;5.40;99.90;;;;;;4896111;29;20184;-73
2024/01/15 05:30:42;;;;;;;13.95;9.70;;;5.40;99.90;;;;;;4894687;29;20216;-72
2024/01/15 05:33:08;;;;;;;13.53;11.00;;;5.50;99.90;;;;;;4896707;29;20557;-72
2024/01/15 05:35:34;;;;;;;13.40;9.63;;;5.40;99.90;;;;;;4897530;29;20617;-72
2024/01/15 05:38:00;;;;;;;16.47;9.70;;;5.40;99.90;;;;;;4867037;29;20645;-63
2024/01/15 05:40:26;;;;;;;10.50;9.30;;;5.40;99.90;;;;;;4881540;29;20420;-72
2024/01/15 05:42:52;;;;;;;15.60;11.00;;;5.50;99.90;;;;;;4880508;29;20184;-72
2024/01/15 05:45:17;;;;;;;14.30;9.40;;;5.50;99.90;;;;;;4896432;29;20226;-72
2024/01/15 05:47:43;;;;;;;13.30;10.90;;;5.50;99.90;;;;;;4880626;29;20820;-72
2024/01/15 05:50:10;;;;;;;19.05;10.55;;;5.40;99.90;;;;;;4896489;29;20230;-73
2024/01/15 05:52:36;;;;;;;17.13;10.15;;;5.50;99.90;;;;;;4880672;29;20180;-73
2024/01/15 05:55:02;;;;;;;11.10;8.48;;;5.40;99.90;;;;;;4885669;29;20180;-62
2024/01/15 05:57:28;;;;;;;12.00;9.50;;;5.30;99.90;;;;;;4877610;29;20692;-72
2024/01/15 05:59:54;;;;;;;11.77;8.77;;;5.30;99.90;;;;;;4878408;29;20407;-71
2024/01/15 06:02:19;;;;;;;11.90;9.13;;;5.30;99.90;;;;;;4877657;29;20183;-72
2024/01/15 06:04:46;;;;;;;12.00;8.77;;;5.30;99.90;;;;;;4892034;29;20214;-72
2024/01/15 06:07:11;;;;;;;15.55;9.48;;;5.20;99.90;;;;;;4896303;29;20263;-72
2024/01/15 06:09:38;;;;;;;14.97;8.93;;;5.30;99.90;;;;;;4888563;29;20263;-72
2024/01/15 06:12:05;;;;;;;11.57;9.10;;;5.30;99.90;;;;;;4877961;29;20177;-62
2024/01/15 06:14:30;;;;;;;15.15;9.18;;;5.30;99.90;;;;;;4878031;29;20422;-72
2024/01/15 06:16:56;;;;;;;9.87;7.97;;;5.30;99.90;;;;;;4884795;29;20192;-71
2024/01/15 06:19:22;;;;;;;12.53;9.50;;;5.30;99.90;;;;;;4894492;29;20427;-71
2024/01/15 06:21:48;;;;;;;13.27;10.90;;;5.40;99.90;;;;;;4869673;29;20191;-72
2024/01/15 06:24:14;;;;;;;18.30;10.07;;;5.40;99.90;;;;;;4861041;29;20220;-72
2024/01/15 06:26:40;;;;;;;19.08;12.05;;;5.40;99.90;;;;;;4864441;29;20537;-72
2024/01/15 06:29:06;;;;;;;10.03;8.80;;;5.30;99.90;;;;;;4883610;29;20175;-63
2024/01/15 06:31:32;;;;;;;13.70;8.40;;;5.40;99.90;;;;;;4886166;29;20877;-68
2024/01/15 06:33:58;;;;;;;10.70;8.13;;;5.40;99.90;;;;;;4878544;29;20643;-68
2024/01/15 06:36:23;;;;;;;14.13;9.02;;;5.30;99.90;;;;;;4880776;29;20611;-68
2024/01/15 06:38:49;;;;;;;10.83;8.40;;;5.40;99.90;;;;;;4895868;29;20190;-65
2024/01/15 06:41:15;;;;;;;11.23;9.87;;;5.40;99.90;;;;;;4899497;29;20185;-67
2024/01/15 06:43:41;;;;;;;13.20;8.77;;;5.40;99.90;;;;;;4865661;29;20211;-67
2024/01/15 06:46:06;;;;;;;11.87;9.63;;;5.30;99.90;;;;;;4881438;29;20212;-61
2024/01/15 06:48:32;;;;;;;12.57;8.40;;;5.30;99.90;;;;;;4888424;29;20195;-66
2024/01/15 06:50:58;;;;;;;10.40;8.40;;;5.20;99.90;;;;;;4900386;29;20180;-67
2024/01/15 06:53:24;;;;;;;10.27;8.33;;;5.20;99.90;;;;;;4893298;29;20244;-66
2024/01/15 06:55:51;;;;;;;10.68;9.50;;;5.30;99.90;;;;;;4891767;29;20191;-66
2024/01/15 06:58:17;;;;;;;11.63;8.30;;;5.30;99.90;;;;;;4881326;29;20198;-66
2024/01/15 07:00:42;;;;;;;11.63;8.13;;;5.30;99.90;;;;;;4896018;29;20196;-67
2024/01/15 07:03:08;;;;;;;11.37;8.23;;;5.30;99.90;;;;;;4898682;29;20172;-66
2024/01/15 07:05:34;;;;;;;11.57;8.40;;;5.20;99.90;;;;;;4895249;29;20184;-66
2024/01/15 07:07:59;;;;;;;12.50;8.83;;;5.30;99.90;;;;;;4900136;29;20187;-67
2024/01/15 07:10:26;;;;;;;12.37;9.10;;;5.10;99.90;;;;;;4895705;29;20217;-65
2024/01/15 07:12:51;;;;;;;11.95;8.68;;;5.10;99.90;;;;;;4891246;29;20177;-66
2024/01/15 07:15:17;;;;;;;11.03;9.30;;;5.20;99.90;;;;;;4899178;29;20275;-67
2024/01/15 07:17:43;;;;;;;10.73;9.27;;;5.20;99.90;;;;;;4899977;29;20175;-67
2024/01/15 07:20:09;;;;;;;11.13;8.20;;;5.20;99.90;;;;;;4883749;29;20215;-67
2024/01/15 07:22:38;;;;;;;10.63;9.20;;;5.20;99.90;;;;;;4896658;29;20190;-66
2024/01/15 07:25:06;;;;;;;10.82;8.10;;;5.30;99.90;;;;;;4899878;29;20215;-67
2024/01/15 07:27:32;;;;;;;10.48;8.40;;;5.40;99.90;;;;;;4899481;29;20213;-67
2024/01/15 07:29:58;;;;;;;11.15;9.18;;;5.40;99.90;;;;;;4897919;29;20187;-65
2024/01/15 07:32:24;;;;;;;11.53;9.53;;;5.30;99.90;;;;;;4884573;29;20597;-67
2024/01/15 07:34:50;;;;;;;10.70;9.47;;;5.30;99.90;;;;;;4891997;29;20179;-67
2024/01/15 07:37:15;;;;;;;11.03;8.87;;;5.40;99.90;;;;;;4895566;29;20463;-67
2024/01/15 07:39:41;;;;;;;12.23;10.60;;;5.40;99.90;;;;;;4896004;29;20190;-67
2024/01/15 07:42:07;;;;;;;15.13;10.47;;;5.30;99.90;;;;;;4897492;29;20190;-60
2024/01/15 07:44:33;;;;;;;12.60;10.77;;;5.30;99.90;;;;;;4898280;29;20207;-68
2024/01/15 07:46:59;;;;;;;14.07;11.00;;;5.20;99.90;;;;;;4899659;29;20445;-67
2024/01/15 07:49:25;;;;;;;14.70;10.70;;;5.20;99.90;;;;;;4894987;29;20181;-64
2024/01/15 07:51:50;;;;;;;15.35;10.52;;;5.20;99.90;;;;;;4872523;29;20526;-66
2024/01/15 07:54:16;;;;;;;12.17;10.97;;;5.30;99.90;;;;;;4896332;29;20188;-67
2024/01/15 07:56:59;;;;;;;13.00;11.23;;;5.20;99.90;;;;;;4889552;29;20235;-67
2024/01/15 07:59:25;;;;;;;11.73;9.35;;;5.20;99.90;;;;;;4890460;29;20184;-67
2024/01/15 08:01:52;;;;;;;10.75;9.65;;;5.20;99.90;;;;;;4892975;29;20188;-66
2024/01/15 08:04:18;;;;;;;11.23;8.95;;;5.20;99.90;;;;;;4891092;29;20207;-67
2024/01/15 08:06:45;;;;;;;15.35;10.60;;;5.20;99.90;;;;;;4899341;29;20172;-67
2024/01/15 08:09:11;;;;;;;10.13;8.38;;;5.30;99.90;;;;;;4898629;29;20187;-66
2024/01/15 08:11:40;;;;;;;11.05;9.00;;;5.30;99.90;;;;;;4899454;29;20187;-67
2024/01/15 08:14:06;;;;;;;11.60;9.02;;;5.40;99.90;;;;;;4898311;29;20239;-66
2024/01/15 08:16:32;;;;;;;13.80;9.80;;;5.40;99.90;;;;;;4883142;29;20641;-67
2024/01/15 08:18:58;;;;;;;10.20;8.50;;;5.30;99.90;;;;;;4880492;29;20184;-67
2024/01/15 08:21:23;;;;;;;12.43;9.90;;;5.30;99.90;;;;;;4868482;29;20184;-66
2024/01/15 08:23:49;;;;;;;10.00;8.47;;;5.30;99.90;;;;;;4898678;29;20460;-67
2024/01/15 08:26:15;;;;;;;9.97;8.67;;;5.30;99.90;;;;;;4880942;29;20195;-66
2024/01/15 08:28:41;;;;;;;7.90;7.10;;;5.30;99.90;;;;;;4886838;29;20172;-67
2024/01/15 08:31:06;;;;;;;8.93;7.17;;;5.30;99.90;;;;;;4870749;29;20179;-67
2024/01/15 08:33:32;;;;;;;9.33;8.43;;;5.30;99.90;;;;;;4892647;29;20444;-67
2024/01/15 08:35:58;;;;;;;6.70;5.50;;;5.30;99.90;;;;;;4898318;29;20179;-67
2024/01/15 08:38:25;;;;;;;5.80;5.07;;;5.30;99.90;;;;;;4898129;29;20509;-67
2024/01/15 08:40:53;;;;;;;10.50;9.60;;;5.30;99.90;;;;;;4895151;29;20538;-61
2024/01/15 08:43:19;;;;;;;9.70;9.00;;;5.80;99.90;;;;;;4892224;29;20701;-61
2024/01/15 08:45:45;;;;;;;9.33;8.73;;;6.30;99.90;;;;;;4897308;29;20560;-62
2024/01/15 08:48:11;;;;;;;8.93;8.33;;;6.90;99.90;;;;;;4892120;29;20458;-60
2024/01/15 08:50:36;;;;;;;9.00;8.30;;;7.50;99.90;;;;;;4894566;29;20457;-61
2024/01/15 08:53:03;;;;;;;7.70;7.10;;;7.90;99.90;;;;;;4883445;29;20424;-62
2024/01/15 08:55:29;;;;;;;8.30;7.60;;;8.20;99.90;;;;;;4887223;29;20175;-62
2024/01/15 08:57:55;;;;;;;7.70;7.20;;;8.60;99.90;;;;;;4914894;29;20457;-61
2024/01/15 09:00:20;;;;;;;6.63;6.27;;;8.90;99.90;;;;;;4897813;29;20206;-62
2024/01/15 09:02:46;;;;;;;6.90;6.43;;;9.10;99.90;;;;;;4877508;29;20187;-62
2024/01/15 09:05:12;;;;;;;7.00;6.50;;;9.20;99.90;;;;;;4856896;29;20215;-61
2024/01/15 09:07:38;;;;;;;7.27;6.70;;;9.40;99.90;;;;;;4862807;29;20424;-62
2024/01/15 09:10:04;;;;;;;11.93;8.40;;;9.60;99.90;;;;;;4891870;29;20188;-62
2024/01/15 09:12:30;;;;;;;7.87;7.27;;;9.70;99.90;;;;;;4890125;29;20645;-62
2024/01/15 09:14:56;;;;;;;8.13;7.53;;;10.00;99.90;;;;;;4875355;29;20449;-67
2024/01/15 09:17:23;;;;;;;6.57;5.70;;;10.10;99.90;;;;;;4885732;29;20559;-75
2024/01/15 09:19:49;;;;;;;5.23;4.83;;;9.80;99.90;;;;;;4890084;29;20609;-75
2024/01/15 09:22:18;;;;;;;7.40;6.80;;;9.40;99.90;;;;;;4894765;29;20437;-65
2024/01/15 09:24:45;;;;;;;6.30;5.80;;;9.00;99.90;;;;;;4893025;29;20487;-68
2024/01/15 09:27:11;;;;;;;6.27;5.77;;;8.60;99.90;;;;;;4897409;29;20943;-68
2024/01/15 09:29:39;;;;;;;5.77;5.27;;;8.30;99.90;;;;;;4895616;29;20538;-68
2024/01/15 09:32:07;;;;;;;6.20;5.70;;;7.80;99.90;;;;;;4890538;29;20856;-67
2024/01/15 09:34:33;;;;;;;8.00;7.30;;;7.40;99.90;;;;;;4896648;29;20434;-68
2024/01/15 09:36:59;;;;;;;6.10;5.50;;;7.00;99.90;;;;;;4897090;29;20437;-68
2024/01/15 09:39:27;;;;;;;7.70;6.97;;;6.80;99.90;;;;;;4892309;29;20433;-68
2024/01/15 09:41:57;;;;;;;9.80;6.83;;;6.60;99.90;;;;;;4887334;29;21149;-68
2024/01/15 09:44:23;;;;;;;7.00;6.30;;;6.30;99.90;;;;;;4895837;29;20497;-67
2024/01/15 09:46:52;;;;;;;6.73;6.07;;;6.10;99.90;;;;;;4896344;29;20449;-68
2024/01/15 09:49:18;;;;;;;7.50;6.90;;;6.00;99.90;;;;;;4878961;29;20184;-61
2024/01/15 09:51:44;;;;;;;8.52;7.80;;;5.90;99.90;;;;;;4895907;29;20429;-69
2024/01/15 09:54:10;;;;;;;7.10;6.40;;;5.90;99.90;;;;;;4896147;29;20622;-68
2024/01/15 09:56:36;;;;;;;7.30;5.90;;;5.70;99.90;;;;;;4895500;29;20218;-68
2024/01/15 09:59:04;;;;;;;8.00;7.30;;;5.60;99.90;;;;;;4895762;29;20889;-68
2024/01/15 10:01:31;;;;;;;7.18;6.55;;;5.40;99.90;;;;;;4896170;29;20395;-68
2024/01/15 10:03:58;;;;;;;6.80;6.30;;;5.30;99.90;;;;;;4878508;29;20301;-67
2024/01/15 10:06:30;;;;;;;6.55;5.95;;;5.20;99.90;;;;;;4895495;29;20199;-67
2024/01/15 10:09:00;;;;;;;6.30;5.90;;;5.20;99.90;;;;;;4898616;29;20523;-68
2024/01/15 10:11:26;;;;;;;5.60;5.10;;;5.20;99.90;;;;;;4898636;29;20175;-68
2024/01/15 10:13:53;;;;;;;5.70;5.20;;;5.00;99.90;;;;;;4899771;29;20222;-67
2024/01/15 10:16:22;;;;;;;5.40;4.90;;;4.90;99.90;;;;;;4900246;29;20183;-61
2024/01/15 10:18:51;;;;;;;7.03;6.43;;;4.90;99.90;;;;;;4896517;29;20170;-65
2024/01/15 10:21:16;;;;;;;5.75;5.25;;;4.90;99.90;;;;;;4885994;29;20183;-62
2024/01/15 10:23:42;;;;;;;4.90;4.50;;;4.90;99.90;;;;;;4885996;29;20218;-69
2024/01/15 10:26:08;;;;;;;4.70;4.40;;;4.90;99.90;;;;;;4885621;29;20191;-71
2024/01/15 10:28:34;;;;;;;5.37;4.97;;;4.90;99.90;;;;;;4886764;29;20184;-72
2024/01/15 10:31:02;;;;;;;5.27;4.87;;;5.00;99.90;;;;;;4892613;29;20462;-71
2024/01/15 10:33:28;;;;;;;6.43;5.93;;;5.00;99.90;;;;;;4874896;29;20186;-72
2024/01/15 10:35:58;;;;;;;5.30;4.80;;;5.00;99.90;;;;;;4900561;29;20171;-73
2024/01/15 10:38:24;;;;;;;6.85;5.43;;;4.90;99.90;;;;;;4883019;29;20466;-72
2024/01/15 10:40:55;;;;;;;5.00;4.60;;;4.90;99.90;;;;;;4871899;29;20270;-68
2024/01/15 10:43:21;;;;;;;4.82;4.43;;;4.90;99.90;;;;;;4883664;29;20183;-73
2024/01/15 10:45:49;;;;;;;5.43;4.80;;;4.90;99.90;;;;;;4889895;29;20181;-72
2024/01/15 10:48:18;;;;;;;5.28;4.88;;;5.00;99.90;;;;;;4896485;29;20187;-73
2024/01/15 10:50:45;;;;;;;5.93;5.47;;;5.10;99.90;;;;;;4894403;29;20183;-74
2024/01/15 10:53:13;;;;;;;5.18;4.78;;;5.10;99.90;;;;;;4890435;29;20885;-73
2024/01/15 10:55:39;;;;;;;6.40;5.80;;;5.00;99.90;;;;;;4890947;29;20199;-73
2024/01/15 10:58:07;;;;;;;6.57;5.88;;;5.00;99.90;;;;;;4879913;29;20306;-73
2024/01/15 11:00:35;;;;;;;5.60;5.22;;;5.10;99.90;;;;;;4879288;29;20200;-73
2024/01/15 11:03:02;;;;;;;5.20;4.53;;;5.00;99.90;;;;;;4880392;29;20636;-72
2024/01/15 11:05:28;;;;;;;5.20;4.80;;;5.10;99.90;;;;;;4873643;29;20208;-73
2024/01/15 11:08:00;;;;;;;5.30;4.80;;;5.10;99.90;;;;;;4876271;29;20192;-73
2024/01/15 11:10:40;;;;;;;5.18;4.88;;;5.30;99.90;;;;;;4880897;29;20534;-72
2024/01/15 11:13:07;;;;;;;6.18;4.90;;;5.20;99.90;;;;;;4879102;29;20275;-73
2024/01/15 11:15:56;;;;;;;6.40;5.57;;;5.10;99.90;;;;;;4879795;29;20633;-73
2024/01/15 11:18:22;;;;;;;4.95;4.55;;;5.10;99.90;;;;;;4879951;29;20180;-72
2024/01/15 11:21:07;;;;;;;5.33;4.93;;;5.10;99.90;;;;;;4880925;29;20183;-73
2024/01/15 11:23:46;;;;;;;5.82;5.15;;;5.10;99.90;;;;;;4880012;29;20727;-73
2024/01/15 11:26:37;;;;;;;8.07;5.25;;;5.00;99.90;;;;;;4880379;29;20180;-68
2024/01/15 11:29:07;;;;;;;6.65;5.47;;;5.00;99.90;;;;;;4877209;29;20244;-68
2024/01/15 11:31:39;;;;;;;7.25;6.65;;;5.00;99.90;;;;;;4880162;29;20187;-66
2024/01/15 11:34:06;;;;;;;5.95;5.38;;;4.90;99.90;;;;;;4879805;29;20184;-68
2024/01/15 11:36:50;;;;;;;6.63;6.13;;;4.90;99.90;;;;;;4878514;29;20663;-67
2024/01/15 11:39:32;;;;;;;6.22;5.72;;;5.00;99.90;;;;;;4879119;29;20214;-73
2024/01/15 11:42:03;;;;;;;7.65;7.05;;;5.00;99.90;;;;;;4862091;29;20228;-73
2024/01/15 11:44:29;;;;;;;5.75;5.15;;;4.90;99.90;;;;;;4873406;29;20227;-72
2024/01/15 11:47:03;;;;;;;5.43;4.90;;;5.00;99.90;;;;;;4876014;29;20190;-73
2024/01/15 11:50:11;;;;;;;6.10;5.60;;;5.00;99.90;;;;;;4874561;29;20275;-73
2024/01/15 11:52:38;;;;;;;5.88;5.30;;;5.00;99.90;;;;;;4880278;29;20172;-74
2024/01/15 11:55:19;;;;;;;8.07;6.65;;;5.00;99.90;;;;;;4877369;29;20322;-75
2024/01/15 11:57:49;;;;;;;9.02;8.13;;;5.00;99.90;;;;;;4899474;29;20234;-74
2024/01/15 12:00:16;;;;;;;7.40;6.70;;;4.90;99.90;;;;;;4898485;29;20187;-75
2024/01/15 12:02:46;;;;;;;6.78;6.22;;;5.00;99.90;;;;;;4897836;29;20327;-75
2024/01/15 12:05:13;;;;;;;7.22;5.68;;;4.90;99.90;;;;;;4895321;29;20775;-68
2024/01/15 12:07:40;;;;;;;6.40;5.80;;;4.90;99.90;;;;;;4890630;29;20239;-73
2024/01/15 12:10:13;;;;;;;5.38;4.85;;;4.90;99.90;;;;;;4894281;29;20183;-70
2024/01/15 12:13:04;;;;;;;6.68;6.18;;;4.90;99.90;;;;;;4878463;29;20190;-69
2024/01/15 12:15:31;;;;;;;6.20;5.70;;;4.90;99.90;;;;;;4894155;29;20202;-70
2024/01/15 12:17:58;;;;;;;7.00;6.50;;;5.00;99.90;;;;;;4898765;29;20522;-71
2024/01/15 12:20:28;;;;;;;6.88;6.28;;;5.00;99.90;;;;;;4874867;29;20701;-64
2024/01/15 12:22:57;;;;;;;6.30;5.82;;;5.10;99.90;;;;;;4880107;29;20168;-71
2024/01/15 12:25:26;;;;;;;8.65;6.22;;;5.20;99.90;;;;;;4879989;29;20207;-64
2024/01/15 12:27:53;;;;;;;7.55;6.82;;;5.20;99.90;;;;;;4879793;29;20245;-70
2024/01/15 12:30:19;;;;;;;6.65;6.15;;;5.20;99.90;;;;;;4884601;29;20680;-70
2024/01/15 12:32:45;;;;;;;7.80;6.63;;;5.20;99.90;;;;;;4896644;29;20274;-70
2024/01/15 12:35:13;;;;;;;7.23;6.40;;;5.10;99.90;;;;;;4898426;29;20507;-71
2024/01/15 12:37:40;;;;;;;6.90;6.20;;;5.10;99.90;;;;;;4893040;29;20472;-69
2024/01/15 12:40:07;;;;;;;8.02;5.63;;;5.10;99.90;;;;;;4891781;29;20259;-70
2024/01/15 12:42:33;;;;;;;8.10;7.40;;;5.10;99.90;;;;;;4879242;29;20172;-74
2024/01/15 12:45:00;;;;;;;8.23;7.53;;;5.10;99.90;;;;;;4893521;29;20213;-77